createdAt,value
2023-02-16T00:00:35.628Z,102243.81
2023-02-16T00:03:07.377Z,102242.97
2023-02-16T00:05:37.488Z,102253.53
2023-02-16T00:08:05.922Z,102264.13
2023-02-16T00:10:35.871Z,102258.75
2023-02-16T00:13:42.388Z,102269.41
2023-02-16T00:16:14.760Z,102279.91
2023-02-16T00:18:42.766Z,102284.28
2023-02-16T00:21:11.108Z,102288.69
2023-02-16T00:23:43.266Z,102264.06
2023-02-16T00:26:16.841Z,102305.31
2023-02-16T00:28:51.421Z,102308.78
2023-02-16T00:31:21.560Z,102307.06
2023-02-16T00:33:51.482Z,102299.19
2023-02-16T00:36:19.740Z,102289.50
2023-02-16T00:38:47.576Z,102297.38
2023-02-16T00:41:33.746Z,102278.09
2023-02-16T00:44:03.355Z,102285.97
2023-02-16T00:46:34.145Z,102277.22
2023-02-16T00:49:04.072Z,102245.34
2023-02-16T00:51:32.487Z,102276.13
2023-02-16T00:54:00.610Z,102257.66
2023-02-16T00:56:34.250Z,102257.75
2023-02-16T00:59:05.463Z,102220.09
2023-02-16T01:01:36.845Z,102256.03
2023-02-16T01:04:08.521Z,102239.41
2023-02-16T01:06:54.209Z,102242.91
2023-02-16T01:09:40.370Z,102230.69
2023-02-16T01:12:15.461Z,102227.97
2023-02-16T01:14:55.518Z,102216.53
2023-02-16T01:17:26.359Z,102220.09
2023-02-16T01:19:54.419Z,102218.34
2023-02-16T01:22:33.382Z,102192.78
2023-02-16T01:25:01.339Z,102222.66
2023-02-16T01:27:31.161Z,102218.19
2023-02-16T01:30:00.698Z,102199.72
2023-02-16T01:32:28.684Z,102205.03
2023-02-16T01:34:57.800Z,102183.91
2023-02-16T01:37:25.936Z,102192.78
2023-02-16T01:39:54.004Z,102184.06
2023-02-16T01:42:35.690Z,102165.66
2023-02-16T01:45:12.543Z,102164.69
2023-02-16T01:47:48.546Z,102163.00
2023-02-16T01:50:24.585Z,102157.75
2023-02-16T01:52:57.960Z,102147.16
2023-02-16T01:55:32.367Z,102161.94
2023-02-16T01:58:06.249Z,102138.44
2023-02-16T02:01:07.840Z,102131.53
2023-02-16T02:03:56.055Z,102130.66
2023-02-16T02:06:28.966Z,102106.16
2023-02-16T02:09:01.740Z,102106.06
2023-02-16T02:11:35.522Z,102131.50
2023-02-16T02:14:08.824Z,102124.50
2023-02-16T02:16:36.981Z,102129.75
2023-02-16T02:19:06.857Z,102136.75
2023-02-16T02:22:21.056Z,102112.16
2023-02-16T02:25:22.849Z,102126.22
2023-02-16T02:27:58.150Z,102107.66
2023-02-16T02:30:37.636Z,102114.81
2023-02-16T02:33:19.863Z,102106.91
2023-02-16T02:35:56.780Z,102102.56
2023-02-16T02:38:34.711Z,102088.50
2023-02-16T02:41:10.154Z,102085.84
2023-02-16T02:43:45.371Z,102083.13
2023-02-16T02:46:20.100Z,102082.41
2023-02-16T02:48:49.042Z,102068.44
2023-02-16T02:51:33.846Z,102074.59
2023-02-16T02:54:24.974Z,102070.22
2023-02-16T02:57:18.061Z,102068.38
2023-02-16T03:00:10.308Z,102052.63
2023-02-16T03:02:45.039Z,102050.94
2023-02-16T03:05:21.964Z,102068.50
2023-02-16T03:07:56.526Z,102047.44
2023-02-16T03:10:53.748Z,102037.91
2023-02-16T03:13:24.582Z,102059.81
2023-02-16T03:15:57.224Z,102056.34
2023-02-16T03:18:46.091Z,102058.13
2023-02-16T03:21:39.720Z,102066.06
2023-02-16T03:24:30.880Z,102052.09
2023-02-16T03:27:18.336Z,102053.88
2023-02-16T03:29:51.091Z,102054.75
2023-02-16T03:32:22.326Z,102069.69
2023-02-16T03:34:51.171Z,102080.22
2023-02-16T03:37:19.446Z,102068.81
2023-02-16T03:40:13.687Z,102068.88
2023-02-16T03:42:41.652Z,102079.41
2023-02-16T03:45:10.250Z,102106.63
2023-02-16T03:47:40.680Z,102118.00
2023-02-16T03:50:09.773Z,102126.78
2023-02-16T03:52:37.809Z,102146.06
2023-02-16T03:55:06.255Z,102133.78
2023-02-16T03:57:34.501Z,102150.47
2023-02-16T04:00:05.827Z,102139.09
2023-02-16T04:02:33.886Z,102140.84
2023-02-16T04:05:04.459Z,102147.00
2023-02-16T04:07:33.351Z,102160.16
2023-02-16T04:10:02.228Z,102162.75
2023-02-16T04:12:39.139Z,102162.78
2023-02-16T04:15:11.717Z,102171.56
2023-02-16T04:17:46.326Z,102179.50
2023-02-16T04:20:19.109Z,102171.53
2023-02-16T04:22:47.496Z,102175.97
2023-02-16T04:25:16.717Z,102166.28
2023-02-16T04:27:47.830Z,102175.03
2023-02-16T04:30:18.241Z,102182.13
2023-02-16T04:32:46.469Z,102179.47
2023-02-16T04:35:18.048Z,102185.63
2023-02-16T04:37:46.865Z,102192.63
2023-02-16T04:40:16.366Z,102182.13
2023-02-16T04:42:45.694Z,102190.91
2023-02-16T04:45:14.646Z,102200.53
2023-02-16T04:47:43.144Z,102186.53
2023-02-16T04:50:12.518Z,102188.25
2023-02-16T04:52:42.500Z,102184.78
2023-02-16T04:55:11.114Z,102186.50
2023-02-16T04:57:39.694Z,102179.47
2023-02-16T05:00:12.215Z,102197.91
2023-02-16T05:02:40.279Z,102179.44
2023-02-16T05:05:09.441Z,102181.25
2023-02-16T05:07:37.556Z,102183.00
2023-02-16T05:10:08.500Z,102173.38
2023-02-16T05:12:54.249Z,102144.41
2023-02-16T05:15:30.441Z,102169.00
2023-02-16T05:17:58.816Z,102177.78
2023-02-16T05:20:47.012Z,102182.16
2023-02-16T05:23:39.209Z,102179.53
2023-02-16T05:26:08.776Z,102176.03
2023-02-16T05:28:38.842Z,102184.78
2023-02-16T05:31:07.254Z,102189.19
2023-02-16T05:33:41.679Z,102174.22
2023-02-16T05:36:10.530Z,102183.91
2023-02-16T05:38:38.464Z,102179.53
2023-02-16T05:41:07.893Z,102173.41
2023-02-16T05:43:35.830Z,102170.75
2023-02-16T05:46:08.471Z,102185.66
2023-02-16T05:48:37.468Z,102177.78
2023-02-16T05:51:06.788Z,102169.00
2023-02-16T05:53:34.718Z,102169.88
2023-02-16T05:56:02.912Z,102158.50
2023-02-16T05:58:43.463Z,102156.72
2023-02-16T06:01:12.572Z,102155.00
2023-02-16T06:03:41.642Z,102159.34
2023-02-16T06:06:10.190Z,102156.72
2023-02-16T06:08:43.996Z,102158.47
2023-02-16T06:11:32.364Z,102159.38
2023-02-16T06:14:09.487Z,102151.50
2023-02-16T06:16:39.587Z,102165.53
2023-02-16T06:19:08.051Z,102169.03
2023-02-16T06:21:37.144Z,102153.22
2023-02-16T06:24:05.909Z,102172.56
2023-02-16T06:26:37.439Z,102167.31
2023-02-16T06:29:07.624Z,102171.69
2023-02-16T06:31:37.946Z,102164.63
2023-02-16T06:34:08.051Z,102151.47
2023-02-16T06:36:37.167Z,102152.38
2023-02-16T06:39:05.310Z,102149.72
2023-02-16T06:41:40.169Z,102162.94
2023-02-16T06:44:13.513Z,102152.34
2023-02-16T06:46:46.590Z,102162.06
2023-02-16T06:49:19.479Z,102167.31
2023-02-16T06:51:50.216Z,102158.56
2023-02-16T06:54:20.541Z,102169.94
2023-02-16T06:56:48.618Z,102157.69
2023-02-16T06:59:18.099Z,102176.09
2023-02-16T07:01:47.261Z,102177.00
2023-02-16T07:04:20.028Z,102176.13
2023-02-16T07:06:48.837Z,102156.81
2023-02-16T07:09:19.371Z,102181.38
2023-02-16T07:11:50.396Z,102172.59
2023-02-16T07:14:23.074Z,102177.00
2023-02-16T07:16:51.002Z,102191.91
2023-02-16T07:19:19.246Z,102186.66
2023-02-16T07:21:47.158Z,102177.88
2023-02-16T07:24:15.225Z,102189.28
2023-02-16T07:26:43.335Z,102181.41
2023-02-16T07:29:11.326Z,102199.81
2023-02-16T07:31:44.784Z,102200.69
2023-02-16T07:34:14.506Z,102225.28
2023-02-16T07:36:45.790Z,102228.81
2023-02-16T07:39:14.635Z,102225.28
2023-02-16T07:41:42.689Z,102232.28
2023-02-16T07:44:10.598Z,102238.44
2023-02-16T07:46:38.770Z,102234.06
2023-02-16T07:49:08.350Z,102245.47
2023-02-16T07:51:39.017Z,102255.16
2023-02-16T07:54:08.135Z,102258.63
2023-02-16T07:56:36.591Z,102271.81
2023-02-16T07:59:07.278Z,102265.66
2023-02-16T08:01:35.434Z,102256.00
2023-02-16T08:04:04.438Z,102248.97
2023-02-16T08:06:35.630Z,102236.69
2023-02-16T08:09:03.717Z,102211.22
2023-02-16T08:11:34.114Z,102213.84
2023-02-16T08:14:03.059Z,102217.34
2023-02-16T08:16:31.308Z,102222.66
2023-02-16T08:19:01.156Z,102230.56
2023-02-16T08:21:31.600Z,102227.00
2023-02-16T08:24:02.990Z,102205.97
2023-02-16T08:26:36.855Z,102213.84
2023-02-16T08:29:06.537Z,102223.50
2023-02-16T08:31:38.440Z,102230.53
2023-02-16T08:34:07.472Z,102224.38
2023-02-16T08:36:38.296Z,102227.91
2023-02-16T08:39:10.316Z,102220.00
2023-02-16T08:41:39.623Z,102224.38
2023-02-16T08:44:09.086Z,102227.91
2023-02-16T08:46:40.464Z,102240.16
2023-02-16T08:49:10.189Z,102244.56
2023-02-16T08:51:41.775Z,102241.91
2023-02-16T08:54:17.091Z,102244.56
2023-02-16T08:56:47.178Z,102257.72
2023-02-16T08:59:16.243Z,102234.88
2023-02-16T09:01:46.604Z,102242.78
2023-02-16T09:04:16.430Z,102250.72
2023-02-16T09:06:48.698Z,102256.81
2023-02-16T09:09:19.098Z,102242.78
2023-02-16T09:11:47.847Z,102256.81
2023-02-16T09:14:18.798Z,102265.56
2023-02-16T09:16:47.243Z,102262.09
2023-02-16T09:19:20.523Z,102262.03
2023-02-16T09:21:51.171Z,102271.72
2023-02-16T09:24:22.033Z,102258.50
2023-02-16T09:26:56.144Z,102283.13
2023-02-16T09:29:24.342Z,102283.13
2023-02-16T09:31:54.723Z,102286.63
2023-02-16T09:34:27.959Z,102287.53
2023-02-16T09:36:56.057Z,102285.81
2023-02-16T09:39:25.700Z,102276.09
2023-02-16T09:42:06.796Z,102273.47
2023-02-16T09:44:43.618Z,102278.72
2023-02-16T09:47:24.657Z,102279.63
2023-02-16T09:49:56.315Z,102276.09
2023-02-16T09:52:40.367Z,102274.31
2023-02-16T09:55:14.792Z,102285.75
2023-02-16T09:58:01.321Z,102270.75
2023-02-16T10:00:44.564Z,102268.16
2023-02-16T10:03:34.452Z,102291.88
2023-02-16T10:06:22.305Z,102284.81
2023-02-16T10:08:57.165Z,102265.38
2023-02-16T10:11:42.598Z,102274.97
2023-02-16T10:14:22.565Z,102316.28
2023-02-16T10:16:56.838Z,102323.31
2023-02-16T10:19:31.435Z,102310.13
2023-02-16T10:22:07.081Z,102336.47
2023-02-16T10:24:44.389Z,102321.50
2023-02-16T10:27:16.816Z,102330.28
2023-02-16T10:29:45.313Z,102308.19
2023-02-16T10:32:26.138Z,102291.44
2023-02-16T10:35:06.154Z,102287.94
2023-02-16T10:37:48.618Z,102258.06
2023-02-16T10:40:26.883Z,102234.34
2023-02-16T10:43:05.471Z,102216.72
2023-02-16T10:45:41.109Z,102183.34
2023-02-16T10:48:11.124Z,102175.50
2023-02-16T10:50:43.110Z,102154.38
2023-02-16T10:53:17.080Z,102126.41
2023-02-16T10:55:45.827Z,102093.03
2023-02-16T10:58:22.489Z,102078.13
2023-02-16T11:00:57.853Z,102056.16
2023-02-16T11:03:30.826Z,102033.22
2023-02-16T11:06:15.046Z,102020.72
2023-02-16T11:08:49.894Z,102016.28
2023-02-16T11:11:20.057Z,102021.50
2023-02-16T11:13:58.119Z,102031.97
2023-02-16T11:16:26.978Z,102039.06
2023-02-16T11:18:59.676Z,102019.84
2023-02-16T11:21:46.772Z,102031.19
2023-02-16T11:24:26.189Z,102020.75
2023-02-16T11:27:04.851Z,102024.28
2023-02-16T11:29:35.621Z,102036.47
2023-02-16T11:32:09.326Z,102020.75
2023-02-16T11:34:41.366Z,102011.97
2023-02-16T11:37:17.146Z,102019.75
2023-02-16T11:39:51.069Z,102020.56
2023-02-16T11:42:26.302Z,102000.31
2023-02-16T11:45:00.285Z,102024.91
2023-02-16T11:47:32.621Z,102006.50
2023-02-16T11:50:19.383Z,102008.25
2023-02-16T11:52:49.776Z,101970.56
2023-02-16T11:55:27.091Z,102000.13
2023-02-16T11:57:57.171Z,101993.06
2023-02-16T12:00:28.013Z,101992.00
2023-02-16T12:03:40.792Z,101974.44
2023-02-16T12:06:21.425Z,101986.31
2023-02-16T12:09:04.108Z,101980.34
2023-02-16T12:11:44.094Z,101963.88
2023-02-16T12:14:24.492Z,101989.31
2023-02-16T12:17:01.482Z,101984.19
2023-02-16T12:19:41.055Z,101932.69
2023-02-16T12:22:23.316Z,101971.44
2023-02-16T12:25:02.930Z,101976.41
2023-02-16T12:27:38.711Z,101991.38
2023-02-16T12:30:23.807Z,102017.69
2023-02-16T12:33:08.160Z,102077.53
2023-02-16T12:35:57.710Z,102160.19
2023-02-16T12:38:39.762Z,102212.28
2023-02-16T12:41:20.517Z,102360.81
2023-02-16T12:43:51.545Z,102471.47
2023-02-16T12:46:24.535Z,102534.53
2023-02-16T12:48:58.907Z,102496.16
2023-02-16T12:51:30.909Z,102417.50
2023-02-16T12:54:03.020Z,102257.19
2023-02-16T12:56:38.431Z,102283.56
2023-02-16T12:59:21.160Z,102208.22
2023-02-16T13:01:53.325Z,102013.50
2023-02-16T13:04:32.696Z,101848.94
2023-02-16T13:07:09.482Z,101944.44
2023-02-16T13:09:41.594Z,102071.78
2023-02-16T13:12:24.447Z,102187.38
2023-02-16T13:15:03.936Z,102254.84
2023-02-16T13:17:37.159Z,102269.22
2023-02-16T13:20:16.761Z,102266.09
2023-02-16T13:23:21.273Z,102189.91
2023-02-16T13:26:24.306Z,102153.59
2023-02-16T13:29:29.198Z,102289.94
2023-02-16T13:35:08.372Z,102280.72
2023-02-16T13:38:11.023Z,102292.25
2023-02-16T13:41:25.042Z,102294.00
2023-02-16T13:43:57.194Z,102270.84
2023-02-16T13:46:30.909Z,102279.53
2023-02-16T13:49:00.155Z,102197.94
2023-02-16T13:51:40.213Z,102051.22
2023-02-16T13:54:24.192Z,102002.34
2023-02-16T13:56:52.284Z,102056.34
2023-02-16T13:59:49.169Z,102085.88
2023-02-16T14:03:01.036Z,102149.91
2023-02-16T14:05:36.127Z,102180.59
2023-02-16T14:08:21.264Z,102183.34
2023-02-16T14:11:06.989Z,102233.31
2023-02-16T14:13:46.701Z,102213.84
2023-02-16T14:16:31.690Z,102216.56
2023-02-16T14:19:03.057Z,102209.41
2023-02-16T14:21:40.800Z,102156.25
2023-02-16T14:24:23.118Z,102161.88
2023-02-16T14:26:59.333Z,102166.28
2023-02-16T14:29:36.326Z,102213.94
2023-02-16T14:32:19.409Z,102225.53
2023-02-16T14:34:54.078Z,102245.28
2023-02-16T14:37:37.955Z,102279.81
2023-02-16T14:40:14.534Z,102281.06
2023-02-16T14:43:04.950Z,102289.44
2023-02-16T14:46:02.119Z,102290.19
2023-02-16T14:48:52.838Z,102290.38
2023-02-16T14:51:51.076Z,102305.72
2023-02-16T14:54:51.825Z,102306.59
2023-02-16T14:57:24.040Z,102295.84
2023-02-16T15:00:03.147Z,102297.72
2023-02-16T15:02:33.873Z,102286.31
2023-02-16T15:05:17.876Z,102273.13
2023-02-16T15:07:50.528Z,102276.78
2023-02-16T15:10:22.305Z,102254.00
2023-02-16T15:12:50.759Z,102187.09
2023-02-16T15:15:23.835Z,102179.84
2023-02-16T15:17:55.253Z,102151.75
2023-02-16T15:20:28.737Z,102097.19
2023-02-16T15:23:01.250Z,102028.44
2023-02-16T15:25:32.690Z,101927.13
2023-02-16T15:28:04.341Z,101882.31
2023-02-16T15:30:35.781Z,101842.03
2023-02-16T15:33:07.082Z,101828.03
2023-02-16T15:35:38.930Z,101785.13
2023-02-16T15:38:19.624Z,101744.88
2023-02-16T15:40:48.273Z,101735.97
2023-02-16T15:43:27.997Z,101725.56
2023-02-16T15:45:58.266Z,101715.19
2023-02-16T15:48:30.488Z,101704.81
2023-02-16T15:51:03.720Z,101711.00
2023-02-16T15:53:38.796Z,101709.31
2023-02-16T15:56:31.272Z,101699.75
2023-02-16T15:59:02.027Z,101710.31
2023-02-16T16:01:34.495Z,101716.56
2023-02-16T16:04:06.519Z,101718.31
2023-02-16T16:06:37.919Z,101710.50
2023-02-16T16:09:08.678Z,101719.41
2023-02-16T16:11:38.339Z,101738.69
2023-02-16T16:14:08.146Z,101736.13
2023-02-16T16:16:40.041Z,101745.75
2023-02-16T16:19:15.963Z,101755.47
2023-02-16T16:21:52.033Z,101741.50
2023-02-16T16:24:34.154Z,101755.66
2023-02-16T16:27:06.813Z,101760.03
2023-02-16T16:29:45.412Z,101775.78
2023-02-16T16:32:24.165Z,101785.50
2023-02-16T16:34:56.687Z,101789.91
2023-02-16T16:37:31.757Z,101786.41
2023-02-16T16:40:04.317Z,101788.94
2023-02-16T16:42:40.257Z,101751.16
2023-02-16T16:45:36.350Z,101514.44
2023-02-16T16:48:12.805Z,101488.09
2023-02-16T16:50:42.606Z,101503.00
2023-02-16T16:53:45.496Z,101517.06
2023-02-16T16:56:15.161Z,101510.06
2023-02-16T16:58:43.504Z,101468.06
2023-02-16T17:01:13.766Z,101495.09
2023-02-16T17:03:43.401Z,101491.63
2023-02-16T17:06:14.215Z,101467.09
2023-02-16T17:08:42.509Z,101460.97
2023-02-16T17:11:14.791Z,101473.97
2023-02-16T17:13:48.742Z,101472.22
2023-02-16T17:16:22.167Z,101465.28
2023-02-16T17:18:54.907Z,101464.34
2023-02-16T17:21:24.187Z,101454.00
2023-02-16T17:23:54.377Z,101448.63
2023-02-16T17:26:24.719Z,101457.38
2023-02-16T17:28:59.711Z,101436.38
2023-02-16T17:31:29.090Z,101418.09
2023-02-16T17:33:58.712Z,101373.00
2023-02-16T17:36:28.167Z,101385.25
2023-02-16T17:38:56.610Z,101373.09
2023-02-16T17:41:26.952Z,101386.13
2023-02-16T17:43:55.868Z,101357.22
2023-02-16T17:46:24.796Z,101363.28
2023-02-16T17:48:55.176Z,101349.25
2023-02-16T17:51:26.845Z,101304.81
2023-02-16T17:53:54.767Z,101302.03
2023-02-16T17:56:27.010Z,101312.34
2023-02-16T17:58:55.215Z,101297.34
2023-02-16T18:01:24.488Z,101331.59
2023-02-16T18:03:53.987Z,101326.41
2023-02-16T18:06:28.167Z,101328.97
2023-02-16T18:08:59.409Z,101344.81
2023-02-16T18:11:27.438Z,101343.16
2023-02-16T18:13:55.778Z,101342.28
2023-02-16T18:16:28.609Z,101341.50
2023-02-16T18:18:58.207Z,101355.31
2023-02-16T18:21:27.730Z,101360.63
2023-02-16T18:23:55.919Z,101364.97
2023-02-16T18:26:23.924Z,101357.06
2023-02-16T18:28:53.143Z,101345.75
2023-02-16T18:31:21.444Z,101372.91
2023-02-16T18:33:49.693Z,101400.94
2023-02-16T18:36:17.804Z,101380.78
2023-02-16T18:38:47.227Z,101392.16
2023-02-16T18:41:15.355Z,101388.56
2023-02-16T18:43:44.748Z,101382.31
2023-02-16T18:46:14.159Z,101372.56
2023-02-16T18:48:42.348Z,101373.47
2023-02-16T18:51:11.636Z,101358.69
2023-02-16T18:53:40.444Z,101366.44
2023-02-16T18:56:13.232Z,101351.66
2023-02-16T18:58:41.280Z,101363.69
2023-02-16T19:01:14.435Z,101377.78
2023-02-16T19:03:43.780Z,101380.53
2023-02-16T19:06:11.852Z,101405.88
2023-02-16T19:08:42.099Z,101391.91
2023-02-16T19:11:11.415Z,101396.13
2023-02-16T19:13:40.490Z,101380.25
2023-02-16T19:16:08.863Z,101376.72
2023-02-16T19:18:38.389Z,101367.78
2023-02-16T19:21:20.801Z,101366.94
2023-02-16T19:23:48.863Z,101353.69
2023-02-16T19:26:18.924Z,101346.81
2023-02-16T19:28:47.819Z,101350.97
2023-02-16T19:31:21.189Z,101351.00
2023-02-16T19:33:50.745Z,101358.91
2023-02-16T19:36:22.870Z,101358.69
2023-02-16T19:38:53.942Z,101353.47
2023-02-16T19:41:26.530Z,101372.81
2023-02-16T19:43:55.021Z,101360.59
2023-02-16T19:46:24.106Z,101366.69
2023-02-16T19:49:06.256Z,101380.66
2023-02-16T19:51:40.874Z,101375.38
2023-02-16T19:54:09.103Z,101363.00
2023-02-16T19:56:40.627Z,101371.69
2023-02-16T19:59:09.816Z,101344.72
2023-02-16T20:01:37.999Z,101357.63
2023-02-16T20:04:06.159Z,101361.16
2023-02-16T20:06:37.339Z,101364.59
2023-02-16T20:09:05.464Z,101362.00
2023-02-16T20:11:33.864Z,101349.63
2023-02-16T20:14:03.165Z,101346.97
2023-02-16T20:16:31.307Z,101343.31
2023-02-16T20:19:00.413Z,101335.50
2023-02-16T20:21:30.292Z,101325.91
2023-02-16T20:24:01.094Z,101331.06
2023-02-16T20:26:34.191Z,101336.28
2023-02-16T20:29:05.486Z,101332.69
2023-02-16T20:31:40.313Z,101334.41
2023-02-16T20:34:09.694Z,101313.56
2023-02-16T20:36:38.729Z,101319.50
2023-02-16T20:39:08.646Z,101318.63
2023-02-16T20:41:37.215Z,101295.75
2023-02-16T20:44:07.759Z,101302.78
2023-02-16T20:46:46.911Z,101309.78
2023-02-16T20:49:16.498Z,101318.56
2023-02-16T20:51:46.615Z,101309.16
2023-02-16T20:54:14.816Z,101325.50
2023-02-16T20:56:45.166Z,101313.34
2023-02-16T20:59:14.798Z,101329.91
2023-02-16T21:01:46.494Z,101328.16
2023-02-16T21:04:17.031Z,101338.72
2023-02-16T21:06:45.764Z,101338.75
2023-02-16T21:09:13.985Z,101346.59
2023-02-16T21:11:42.931Z,101352.75
2023-02-16T21:14:14.507Z,101360.66
2023-02-16T21:16:43.108Z,101368.56
2023-02-16T21:19:22.159Z,101351.16
2023-02-16T21:21:52.023Z,101369.38
2023-02-16T21:24:21.330Z,101368.56
2023-02-16T21:26:50.612Z,101364.16
2023-02-16T21:29:20.342Z,101348.63
2023-02-16T21:31:48.985Z,101359.66
2023-02-16T21:34:17.050Z,101371.97
2023-02-16T21:36:45.123Z,101386.09
2023-02-16T21:39:13.527Z,101408.03
2023-02-16T21:41:43.114Z,101420.41
2023-02-16T21:44:14.087Z,101652.22
2023-02-16T21:46:47.570Z,101654.81
2023-02-16T21:49:16.521Z,101660.03
2023-02-16T21:51:46.240Z,101664.44
2023-02-16T21:54:16.360Z,101642.53
2023-02-16T21:56:44.925Z,101660.94
2023-02-16T21:59:15.029Z,101653.06
2023-02-16T22:01:47.912Z,101663.47
2023-02-16T22:04:18.208Z,101662.69
2023-02-16T22:06:48.577Z,101657.41
2023-02-16T22:09:19.747Z,101661.78
2023-02-16T22:11:48.836Z,101664.38
2023-02-16T22:14:33.251Z,101644.94
2023-02-16T22:17:04.413Z,101651.09
2023-02-16T22:19:32.276Z,101630.91
2023-02-16T22:22:00.650Z,101640.53
2023-02-16T22:24:28.801Z,101638.84
2023-02-16T22:26:57.010Z,101650.22
2023-02-16T22:29:24.972Z,101632.72
2023-02-16T22:31:53.143Z,101641.41
2023-02-16T22:34:23.266Z,101635.22
2023-02-16T22:36:51.575Z,101635.25
2023-02-16T22:39:20.436Z,101607.22
2023-02-16T22:41:50.935Z,101624.66
2023-02-16T22:44:19.066Z,101629.03
2023-02-16T22:46:47.339Z,101622.91
2023-02-16T22:49:16.314Z,101628.16
2023-02-16T22:51:47.693Z,101622.75
2023-02-16T22:54:16.332Z,101599.34
2023-02-16T22:56:46.454Z,101624.47
2023-02-16T22:59:14.728Z,101623.72
2023-02-16T23:01:42.981Z,101630.72
2023-02-16T23:04:15.429Z,101620.13
2023-02-16T23:06:46.081Z,101626.28
2023-02-16T23:09:16.329Z,101631.59
2023-02-16T23:11:44.681Z,101639.59
2023-02-16T23:14:18.602Z,101634.34
2023-02-16T23:16:48.312Z,101624.72
2023-02-16T23:19:18.080Z,101642.97
2023-02-16T23:21:51.629Z,101639.50
2023-02-16T23:24:22.250Z,101643.84
2023-02-16T23:26:50.526Z,101637.75
2023-02-16T23:29:18.885Z,101654.50
2023-02-16T23:31:48.191Z,101645.59
2023-02-16T23:34:19.596Z,101646.50
2023-02-16T23:36:50.147Z,101635.09
2023-02-16T23:39:19.754Z,101638.72
2023-02-16T23:41:48.927Z,101645.66
2023-02-16T23:44:23.590Z,101630.88
2023-02-16T23:46:51.664Z,101612.44
2023-02-16T23:49:29.715Z,101643.84
2023-02-16T23:51:59.120Z,101624.50
2023-02-16T23:54:27.590Z,101633.25
2023-02-16T23:56:56.572Z,101631.44
2023-02-16T23:59:24.544Z,101621.03
